Aircraft CS-LAU Data

CS-LAU
2016 Cessna 680A Citation Latitude, c/n 680A-0027
Share Photo Links
Latest photos of CS-LAU
Aircraft CS-LAU, After its minor metamorphosis by Satys ready to go again Registration moved to the nacelles (Without the stripes now) and the stripes on the tail are now in a lower position., at EHLE, photo by Jan Bekker
Jan Bekker
@ EHLE
Aircraft CS-LAU, Arriving at Lelystad Airport for a fresh livery by Satys., at EHLE, photo by Jan Bekker
Jan Bekker
@ EHLE
Aircraft CS-LAU, Copenhagen 19.7.2020, at CPH, photo by leo larsen
leo larsen
@ CPH
Aircraft CS-LAU, Cessna 680 Citation Latitude - NJE NetJets Europe - 680A0027 - CS-LAU - 15.08.2020 - CGN, at EDDK, photo by Ralf Winter
Ralf Winter
@ EDDK
Recent Routes
NO LIVE DATA
Time Callsign FL Speed Heading Route
2026-09-04 20:34 UTC NJE104C FL21 159 kt 227°
2026-09-04 19:24 UTC NJ104C / NJ104C 0 kt 34°
2026-09-04 18:22 UTC NJE776E 0 kt 34°
2026-09-04 13:38 UTC NJE390H 10 kt 45°
2026-09-04 10:20 UTC NJE501R 0 kt 96°
2026-08-24 08:06 UTC NJE454E FL105 322 kt 135°
2026-08-23 17:02 UTC NJE637Y FL1 48 kt 250°
2026-08-23 13:06 UTC NJE7TV FL251 450 kt 119°
2026-08-23 11:14 UTC NJE533U 27 kt 304°
2026-08-23 07:26 UTC NJE934B 23 kt 343°
2026-08-22 08:18 UTC NJE781Y FL45 270 kt 81°
2026-08-21 11:28 UTC NJE210U FL28 174 kt 51°
2026-08-20 16:38 UTC NJE539Y FL7 95 kt 237°
2026-08-20 12:24 UTC NJE093Q 10 kt 127°
2026-08-20 10:10 UTC NJE160K FL6 115 kt 239°
2026-08-19 18:32 UTC NJE436M 9 kt 96°
2026-08-19 13:18 UTC NJE837D FL51 235 kt 96°
2026-08-18 19:00 UTC NJE581H FL2 98 kt 265°
2026-08-18 16:46 UTC NJE759F 62 kt 155°
2026-08-18 13:00 UTC NJE549B FL6 99 kt 223°
2026-08-18 11:10 UTC NJE869H FL16 103 kt 222°
2026-08-17 15:06 UTC NJE043N FL50 230 kt 151°
2026-08-17 12:38 UTC NJE844V 4 kt 160°
2026-08-17 10:22 UTC NJE348P 0 kt 335°
2026-08-16 15:38 UTC NJE448N FL19 191 kt 278°
2026-08-16 14:06 UTC NJE648U FL2 99 kt 326°
2026-08-15 10:04 UTC NJE401Q FL19 16 kt 225°
2026-08-15 07:36 UTC NJE061C FL112 277 kt 298°
2026-08-14 12:04 UTC NJE337D 9 kt 45°
2026-08-14 08:12 UTC NJE717P FL194 385 kt 354°
2026-08-13 10:18 UTC NJE014G FL6 103 kt 54°
2026-08-13 07:28 UTC NJE549P FL18 112 kt 72°
2026-08-12 14:30 UTC NJE764D 4 kt 84°
2026-08-12 10:32 UTC NJE093B 0 kt 273°
2026-08-12 08:14 UTC NJE077L FL3 98 kt 327°
2026-08-11 16:26 UTC NJE592B 13 kt 315°
2026-08-11 12:50 UTC NJE801V FL6 98 kt 237°
2026-08-11 08:28 UTC NJE725E 1 kt 160°
2026-08-11 05:28 UTC NJE348G FL12 0 kt 278°
2026-08-08 17:12 UTC NJE104F FL30 196 kt 287°
2026-08-08 13:24 UTC NJE644F FL81 281 kt 156°
2026-08-08 10:26 UTC NJE152L 0 kt 104°
2026-08-08 07:34 UTC NJE349C FL13 162 kt 235°
2026-08-07 16:12 UTC NJE192A FL2 119 kt 231°
2026-08-07 12:40 UTC NJE376N 0 kt 211°

Live location data from OpenSky Network

Airframe Info
Manufacturer Cessna
Model 680A Citation Latitude Search all Cessna 680A Citation Latitude
Year built 2016
Construction Number (C/N) 680A-0027
Aircraft Type Fixed wing multi engine
Number of Seats 8
Number of Engines 2
Engine Type Turbofan
Engine Manufacturer and Model P&W Canada PW306D1
Also Registered As
N551QS Deregistered Cancel: 2017-05-11
N52038 De-registered
CS-LAT De-registered
Aircraft
Registration Number CS-LAU
Mode S (ICAO24) Code 493035
Current Status Valid
Delivery Date 2016-05-07
Owner
Owner NetJets Transportes Aereos
Address ,
Portugal